createdAt,value
2023-05-11T00:02:18.114Z,56.98
2023-05-11T00:04:46.540Z,57.66
2023-05-11T00:07:14.802Z,56.42
2023-05-11T00:09:43.015Z,56.86
2023-05-11T00:12:11.517Z,56.71
2023-05-11T00:14:41.692Z,57.38
2023-05-11T00:17:10.926Z,57.66
2023-05-11T00:19:39.279Z,57.42
2023-05-11T00:22:07.510Z,57.83
2023-05-11T00:24:35.763Z,57.59
2023-05-11T00:27:04.247Z,57.72
2023-05-11T00:29:32.578Z,57.99
2023-05-11T00:32:03.464Z,57.71
2023-05-11T00:34:32.244Z,57.90
2023-05-11T00:37:00.862Z,57.79
2023-05-11T00:39:29.071Z,58.97
2023-05-11T00:41:58.008Z,59.27
2023-05-11T00:44:27.521Z,59.21
2023-05-11T00:46:56.239Z,59.02
2023-05-11T00:49:26.005Z,59.80
2023-05-11T00:51:54.307Z,60.40
2023-05-11T00:54:22.969Z,60.46
2023-05-11T00:56:51.111Z,61.27
2023-05-11T00:59:19.502Z,61.29
2023-05-11T01:01:47.822Z,62.04
2023-05-11T01:04:16.190Z,62.44
2023-05-11T01:06:52.971Z,62.41
2023-05-11T01:09:30.887Z,62.94
2023-05-11T01:12:09.879Z,63.12
2023-05-11T01:14:46.259Z,64.51
2023-05-11T01:17:25.416Z,63.83
2023-05-11T01:19:59.168Z,64.67
2023-05-11T01:22:44.613Z,65.10
2023-05-11T01:25:23.884Z,65.46
2023-05-11T01:28:21.805Z,66.00
2023-05-11T01:30:53.377Z,65.94
2023-05-11T01:33:27.357Z,66.34
2023-05-11T01:36:01.992Z,67.12
2023-05-11T01:38:34.941Z,67.22
2023-05-11T01:41:10.368Z,68.06
2023-05-11T01:43:42.736Z,68.47
2023-05-11T01:46:14.039Z,68.39
2023-05-11T01:48:48.316Z,69.79
2023-05-11T01:51:19.840Z,69.07
2023-05-11T01:53:49.400Z,69.78
2023-05-11T01:56:19.649Z,69.91
2023-05-11T01:58:52.898Z,70.05
2023-05-11T02:01:23.547Z,70.69
2023-05-11T02:03:54.915Z,71.57
2023-05-11T02:06:25.658Z,71.74
2023-05-11T02:08:54.870Z,71.31
2023-05-11T02:11:26.032Z,72.70
2023-05-11T02:13:57.083Z,72.09
2023-05-11T02:16:29.595Z,73.38
2023-05-11T02:19:00.224Z,73.65
2023-05-11T02:21:29.085Z,74.32
2023-05-11T02:23:58.812Z,75.31
2023-05-11T02:26:27.168Z,76.14
2023-05-11T02:28:55.595Z,76.11
2023-05-11T02:31:29.835Z,76.16
2023-05-11T02:34:01.639Z,75.82
2023-05-11T02:36:31.412Z,77.19
2023-05-11T02:39:08.979Z,77.33
2023-05-11T02:41:44.114Z,77.78
2023-05-11T02:44:17.335Z,77.61
2023-05-11T02:46:51.429Z,78.34
2023-05-11T02:49:22.345Z,77.28
2023-05-11T02:51:51.848Z,77.65
2023-05-11T02:54:23.368Z,77.82
2023-05-11T02:56:52.609Z,77.06
2023-05-11T02:59:22.782Z,77.72
2023-05-11T03:01:53.344Z,77.05
2023-05-11T03:04:28.978Z,77.89
2023-05-11T03:06:57.916Z,77.12
2023-05-11T03:09:26.957Z,78.15
2023-05-11T03:11:56.059Z,76.74
2023-05-11T03:14:24.818Z,77.27
2023-05-11T03:16:56.570Z,76.83
2023-05-11T03:19:25.471Z,75.94
2023-05-11T03:21:55.121Z,75.91
2023-05-11T03:24:24.644Z,74.57
2023-05-11T03:26:53.812Z,74.93
2023-05-11T03:29:24.005Z,73.83
2023-05-11T03:31:56.223Z,73.88
2023-05-11T03:34:25.017Z,74.04
2023-05-11T03:36:54.243Z,73.35
2023-05-11T03:39:23.979Z,73.36
2023-05-11T03:41:54.935Z,73.19
2023-05-11T03:44:26.239Z,73.50
2023-05-11T03:46:56.902Z,72.44
2023-05-11T03:49:26.355Z,72.95
2023-05-11T03:52:06.020Z,71.88
2023-05-11T03:54:34.409Z,72.38
2023-05-11T03:57:03.380Z,72.36
2023-05-11T03:59:31.651Z,72.49
2023-05-11T04:02:01.862Z,71.98
2023-05-11T04:04:31.180Z,72.06
2023-05-11T04:07:07.304Z,72.34
2023-05-11T04:09:35.531Z,71.78
2023-05-11T04:12:03.805Z,71.99
2023-05-11T04:14:32.125Z,72.78
2023-05-11T04:17:03.563Z,72.92
2023-05-11T04:19:33.841Z,72.91
2023-05-11T04:22:05.063Z,72.05
2023-05-11T04:24:33.236Z,72.03
2023-05-11T04:27:04.457Z,72.18
2023-05-11T04:29:32.785Z,72.17
2023-05-11T04:32:03.114Z,71.98
2023-05-11T04:34:31.892Z,71.69
2023-05-11T04:37:00.330Z,71.68
2023-05-11T04:39:28.621Z,71.51
2023-05-11T04:41:56.892Z,71.39
2023-05-11T04:44:25.714Z,71.00
2023-05-11T04:46:55.771Z,70.74
2023-05-11T04:49:25.480Z,70.35
2023-05-11T04:51:53.740Z,70.26
2023-05-11T04:54:21.884Z,69.89
2023-05-11T04:56:50.107Z,69.84
2023-05-11T04:59:18.370Z,69.39
2023-05-11T05:01:46.652Z,68.58
2023-05-11T05:04:14.947Z,68.73
2023-05-11T05:06:45.143Z,68.17
2023-05-11T05:09:13.737Z,68.49
2023-05-11T05:11:42.426Z,68.08
2023-05-11T05:14:10.850Z,67.55
2023-05-11T05:16:42.349Z,67.36
2023-05-11T05:19:12.901Z,66.69
2023-05-11T05:21:41.820Z,66.27
2023-05-11T05:24:12.349Z,66.54
2023-05-11T05:26:40.579Z,65.47
2023-05-11T05:29:09.262Z,65.58
2023-05-11T05:31:37.497Z,64.74
2023-05-11T05:34:06.596Z,64.45
2023-05-11T05:36:35.508Z,64.28
2023-05-11T05:39:08.895Z,63.90
2023-05-11T05:41:42.996Z,63.88
2023-05-11T05:44:11.156Z,62.56
2023-05-11T05:46:39.553Z,61.83
2023-05-11T05:49:08.264Z,61.95
2023-05-11T05:51:37.154Z,61.04
2023-05-11T05:54:05.874Z,60.17
2023-05-11T05:56:49.363Z,59.92
2023-05-11T05:59:19.526Z,59.32
2023-05-11T06:01:49.201Z,59.61
2023-05-11T06:04:17.701Z,59.42
2023-05-11T06:06:46.215Z,58.66
2023-05-11T06:09:14.551Z,57.61
2023-05-11T06:11:45.541Z,56.96
2023-05-11T06:14:15.659Z,56.61
2023-05-11T06:16:44.004Z,56.47
2023-05-11T06:19:13.537Z,56.35
2023-05-11T06:21:45.280Z,55.82
2023-05-11T06:24:13.571Z,55.43
2023-05-11T06:26:42.293Z,55.83
2023-05-11T06:29:10.942Z,53.89
2023-05-11T06:31:41.953Z,53.89
2023-05-11T06:34:10.722Z,52.22
2023-05-11T06:36:39.354Z,51.36
2023-05-11T06:39:07.894Z,50.92
2023-05-11T06:41:36.173Z,50.73
2023-05-11T06:44:06.662Z,50.34
2023-05-11T06:46:35.481Z,50.28
2023-05-11T06:49:05.204Z,49.15
2023-05-11T06:51:34.634Z,49.08
2023-05-11T06:54:03.136Z,48.58
2023-05-11T06:56:32.088Z,48.35
2023-05-11T06:59:00.569Z,47.78
2023-05-11T07:01:29.003Z,48.18
2023-05-11T07:03:57.187Z,47.02
2023-05-11T07:06:27.298Z,45.81
2023-05-11T07:08:55.717Z,45.59
2023-05-11T07:11:25.607Z,45.19
2023-05-11T07:13:56.116Z,44.04
2023-05-11T07:16:24.892Z,44.08
2023-05-11T07:18:53.677Z,44.09
2023-05-11T07:21:23.476Z,45.08
2023-05-11T07:23:53.431Z,43.97
2023-05-11T07:26:22.169Z,43.85
2023-05-11T07:28:51.010Z,43.78
2023-05-11T07:31:19.245Z,43.13
2023-05-11T07:33:47.905Z,42.98
2023-05-11T07:36:16.197Z,42.25
2023-05-11T07:38:44.369Z,41.39
2023-05-11T07:41:14.311Z,41.92
2023-05-11T07:43:42.888Z,41.40
2023-05-11T07:46:11.136Z,41.15
2023-05-11T07:48:39.377Z,40.69
2023-05-11T07:51:08.488Z,39.30
2023-05-11T07:53:42.186Z,39.82
2023-05-11T07:56:10.728Z,38.98
2023-05-11T07:58:40.421Z,39.46
2023-05-11T08:01:08.855Z,38.27
2023-05-11T08:03:45.325Z,38.00
2023-05-11T08:06:13.796Z,37.77
2023-05-11T08:08:43.880Z,37.71
2023-05-11T08:11:12.203Z,38.12
2023-05-11T08:13:42.329Z,37.22
2023-05-11T08:16:10.934Z,36.95
2023-05-11T08:18:39.282Z,36.00
2023-05-11T08:21:08.234Z,36.15
2023-05-11T08:23:45.221Z,35.69
2023-05-11T08:26:13.552Z,35.37
2023-05-11T08:28:44.203Z,35.30
2023-05-11T08:31:14.441Z,34.46
2023-05-11T08:33:42.772Z,34.87
2023-05-11T08:36:13.286Z,34.64
2023-05-11T08:38:41.780Z,33.73
2023-05-11T08:41:13.710Z,34.29
2023-05-11T08:43:47.077Z,33.87
2023-05-11T08:46:22.322Z,33.86
2023-05-11T08:48:51.382Z,33.20
2023-05-11T08:51:19.941Z,32.82
2023-05-11T08:53:48.363Z,32.58
2023-05-11T08:56:17.425Z,32.49
2023-05-11T08:58:48.926Z,32.38
2023-05-11T09:01:23.539Z,32.30
2023-05-11T09:03:52.901Z,32.87
2023-05-11T09:06:22.588Z,32.63
2023-05-11T09:08:51.082Z,32.16
2023-05-11T09:11:19.801Z,32.58
2023-05-11T09:13:49.693Z,32.36
2023-05-11T09:16:35.507Z,31.48
2023-05-11T09:19:05.606Z,32.04
2023-05-11T09:21:35.102Z,32.25
2023-05-11T09:24:04.704Z,32.09
2023-05-11T09:26:39.700Z,32.33
2023-05-11T09:29:09.510Z,31.57
2023-05-11T09:31:41.700Z,31.35
2023-05-11T09:34:12.977Z,31.90
2023-05-11T09:36:41.779Z,32.01
2023-05-11T09:39:15.545Z,31.72
2023-05-11T09:41:47.279Z,32.49
2023-05-11T09:44:17.356Z,31.72
2023-05-11T09:46:47.705Z,31.11
2023-05-11T09:49:16.035Z,31.37
2023-05-11T09:51:44.282Z,31.38
2023-05-11T09:54:19.818Z,30.30
2023-05-11T09:56:50.403Z,31.19
2023-05-11T09:59:38.946Z,31.75
2023-05-11T10:02:21.630Z,31.45
2023-05-11T10:04:50.735Z,31.96
2023-05-11T10:07:27.054Z,31.59
2023-05-11T10:09:56.490Z,31.57
2023-05-11T10:12:27.479Z,30.92
2023-05-11T10:15:03.894Z,31.34
2023-05-11T10:17:32.445Z,31.38
2023-05-11T10:20:01.868Z,31.10
2023-05-11T10:22:31.010Z,31.25
2023-05-11T10:25:00.410Z,30.91
2023-05-11T10:27:29.069Z,30.85
2023-05-11T10:30:00.887Z,30.45
2023-05-11T10:32:29.707Z,31.22
2023-05-11T10:34:58.046Z,31.12
2023-05-11T10:37:27.131Z,30.39
2023-05-11T10:39:55.337Z,30.70
2023-05-11T10:42:38.264Z,30.13
2023-05-11T10:45:27.749Z,29.99
2023-05-11T10:48:28.095Z,31.04
2023-05-11T10:51:09.256Z,30.30
2023-05-11T10:53:59.474Z,30.06
2023-05-11T10:56:41.172Z,30.47
2023-05-11T10:59:30.866Z,30.52
2023-05-11T11:02:01.861Z,30.84
2023-05-11T11:04:44.104Z,30.73
2023-05-11T11:07:17.203Z,30.52
2023-05-11T11:09:53.611Z,29.15
2023-05-11T11:12:23.485Z,29.87
2023-05-11T11:14:56.403Z,30.54
2023-05-11T11:17:29.159Z,30.30
2023-05-11T11:19:58.012Z,30.07
2023-05-11T11:22:47.427Z,30.86
2023-05-11T11:25:17.552Z,30.60
2023-05-11T11:28:00.234Z,29.82
2023-05-11T11:30:30.787Z,29.80
2023-05-11T11:33:34.806Z,29.14
2023-05-11T11:36:03.613Z,28.60
2023-05-11T11:38:33.288Z,29.31
2023-05-11T11:41:03.779Z,29.21
2023-05-11T11:43:47.326Z,29.68
2023-05-11T11:46:28.998Z,29.04
2023-05-11T11:49:13.433Z,28.88
2023-05-11T11:51:41.860Z,29.36
2023-05-11T11:54:10.389Z,28.16
2023-05-11T11:56:45.808Z,27.97
2023-05-11T11:59:16.147Z,28.44
2023-05-11T12:01:46.036Z,28.28
2023-05-11T12:04:51.088Z,28.40
2023-05-11T12:07:23.010Z,29.01
2023-05-11T12:09:52.961Z,28.60
2023-05-11T12:12:22.149Z,28.77
2023-05-11T12:14:50.906Z,28.87
2023-05-11T12:17:28.286Z,28.24
2023-05-11T12:19:57.891Z,28.57
2023-05-11T12:22:28.171Z,29.31
2023-05-11T12:25:00.514Z,28.31
2023-05-11T12:27:29.032Z,28.62
2023-05-11T12:29:58.658Z,28.24
2023-05-11T12:32:29.993Z,28.29
2023-05-11T12:35:02.468Z,28.28
2023-05-11T12:37:33.090Z,27.58
2023-05-11T12:40:01.602Z,28.45
2023-05-11T12:42:29.753Z,28.38
2023-05-11T12:44:58.501Z,27.83
2023-05-11T12:47:29.605Z,27.97
2023-05-11T12:49:58.010Z,28.03
2023-05-11T12:52:26.729Z,27.44
2023-05-11T12:55:00.190Z,27.97
2023-05-11T12:57:30.124Z,28.32
2023-05-11T13:00:13.341Z,27.69
2023-05-11T13:02:52.114Z,28.00
2023-05-11T13:05:25.416Z,27.82
2023-05-11T13:07:59.760Z,27.74
2023-05-11T13:10:29.695Z,27.91
2023-05-11T13:12:59.239Z,29.00
2023-05-11T13:15:28.660Z,28.62
2023-05-11T13:17:58.912Z,28.32
2023-05-11T13:20:29.661Z,28.33
2023-05-11T13:23:06.882Z,27.70
2023-05-11T13:25:54.587Z,28.00
2023-05-11T13:28:25.515Z,28.76
2023-05-11T13:31:11.712Z,28.99
2023-05-11T13:33:40.006Z,28.65
2023-05-11T13:36:08.690Z,28.09
2023-05-11T13:38:37.234Z,28.84
2023-05-11T13:41:08.675Z,28.37
2023-05-11T13:43:37.028Z,27.82
2023-05-11T13:46:05.340Z,28.10
2023-05-11T13:48:51.980Z,28.11
2023-05-11T13:51:20.228Z,28.24
2023-05-11T13:53:48.821Z,28.17
2023-05-11T13:56:19.768Z,28.42
2023-05-11T13:58:47.979Z,28.46
2023-05-11T14:01:16.527Z,28.39
2023-05-11T14:03:44.909Z,28.59
2023-05-11T14:06:13.170Z,27.84
2023-05-11T14:08:41.426Z,27.85
2023-05-11T14:11:09.636Z,28.19
2023-05-11T14:13:40.989Z,27.77
2023-05-11T14:16:10.241Z,28.28
2023-05-11T14:18:54.981Z,28.17
2023-05-11T14:21:23.468Z,28.72
2023-05-11T14:24:10.039Z,28.21
2023-05-11T14:26:40.049Z,28.48
2023-05-11T14:29:09.982Z,28.38
2023-05-11T14:31:38.775Z,28.45
2023-05-11T14:34:07.782Z,28.31
2023-05-11T14:36:37.611Z,28.81
2023-05-11T14:39:05.813Z,28.64
2023-05-11T14:41:34.069Z,28.53
2023-05-11T14:44:02.921Z,28.34
2023-05-11T14:46:32.789Z,27.92
2023-05-11T14:49:01.472Z,27.92
2023-05-11T14:51:29.889Z,28.06
2023-05-11T14:53:59.613Z,28.19
2023-05-11T14:56:27.823Z,28.38
2023-05-11T14:58:57.328Z,27.49
2023-05-11T15:01:25.533Z,28.15
2023-05-11T15:03:55.963Z,28.12
2023-05-11T15:06:24.888Z,28.42
2023-05-11T15:08:54.809Z,28.02
2023-05-11T15:11:25.984Z,28.24
2023-05-11T15:13:54.234Z,27.93
2023-05-11T15:16:22.419Z,27.95
2023-05-11T15:18:50.931Z,27.77
2023-05-11T15:21:20.556Z,27.99
2023-05-11T15:23:55.465Z,28.25
2023-05-11T15:26:23.811Z,27.73
2023-05-11T15:28:52.593Z,27.12
2023-05-11T15:31:20.780Z,25.72
2023-05-11T15:33:49.049Z,23.67
2023-05-11T15:36:17.453Z,22.46
2023-05-11T15:38:48.170Z,21.68
2023-05-11T15:41:16.597Z,21.34
2023-05-11T15:43:46.066Z,20.68
2023-05-11T15:46:14.301Z,21.13
2023-05-11T15:48:42.711Z,20.01
2023-05-11T15:51:11.061Z,19.68
2023-05-11T15:53:39.571Z,20.27
2023-05-11T15:56:10.273Z,19.49
2023-05-11T15:58:38.997Z,20.22
2023-05-11T16:01:07.307Z,19.92
2023-05-11T16:03:36.205Z,19.37
2023-05-11T16:06:04.974Z,19.73
2023-05-11T16:08:33.652Z,20.15
2023-05-11T16:11:02.274Z,19.96
2023-05-11T16:13:31.883Z,19.88
2023-05-11T16:16:01.269Z,19.65
2023-05-11T16:18:29.447Z,19.45
2023-05-11T16:20:58.886Z,19.50
2023-05-11T16:23:28.011Z,19.78
2023-05-11T16:25:56.821Z,19.65
2023-05-11T16:28:25.193Z,19.63
2023-05-11T16:30:57.888Z,19.26
2023-05-11T16:33:28.296Z,19.40
2023-05-11T16:35:57.134Z,20.17
2023-05-11T16:38:25.338Z,19.90
2023-05-11T16:40:53.688Z,20.48
2023-05-11T16:43:22.306Z,20.20
2023-05-11T16:45:51.857Z,21.17
2023-05-11T16:48:21.646Z,20.67
2023-05-11T16:50:50.358Z,20.21
2023-05-11T16:53:22.269Z,20.51
2023-05-11T16:55:52.097Z,20.05
2023-05-11T16:58:20.255Z,20.53
2023-05-11T17:00:56.131Z,20.57
2023-05-11T17:03:26.157Z,19.97
2023-05-11T17:05:55.937Z,19.95
2023-05-11T17:08:24.329Z,19.99
2023-05-11T17:10:55.782Z,19.53
2023-05-11T17:13:23.946Z,19.80
2023-05-11T17:15:56.309Z,19.71
2023-05-11T17:18:26.412Z,20.45
2023-05-11T17:20:55.238Z,20.26
2023-05-11T17:23:23.631Z,20.13
2023-05-11T17:25:57.922Z,20.24
2023-05-11T17:28:26.784Z,20.62
2023-05-11T17:30:55.051Z,21.03
2023-05-11T17:33:23.679Z,21.51
2023-05-11T17:35:54.516Z,21.88
2023-05-11T17:38:22.801Z,22.56
2023-05-11T17:40:51.071Z,22.89
2023-05-11T17:43:19.786Z,23.22
2023-05-11T17:45:48.296Z,23.60
2023-05-11T17:48:17.211Z,24.23
2023-05-11T17:50:48.256Z,24.37
2023-05-11T17:53:18.130Z,25.28
2023-05-11T17:55:46.397Z,24.87
2023-05-11T17:58:15.087Z,25.30
2023-05-11T18:00:49.078Z,25.33
2023-05-11T18:03:17.947Z,25.75
2023-05-11T18:05:49.044Z,25.00
2023-05-11T18:08:19.078Z,25.00
2023-05-11T18:10:48.245Z,24.90
2023-05-11T18:13:17.646Z,24.69
2023-05-11T18:15:46.123Z,24.25
2023-05-11T18:18:14.532Z,24.64
2023-05-11T18:20:45.563Z,24.31
2023-05-11T18:23:14.239Z,25.04
2023-05-11T18:25:44.526Z,25.23
2023-05-11T18:28:12.723Z,25.31
2023-05-11T18:30:41.135Z,25.87
2023-05-11T18:33:09.405Z,26.91
2023-05-11T18:35:39.343Z,26.87
2023-05-11T18:38:07.808Z,27.41
2023-05-11T18:40:36.279Z,27.42
2023-05-11T18:43:05.920Z,27.90
2023-05-11T18:45:35.127Z,28.07
2023-05-11T18:48:03.833Z,28.51
2023-05-11T18:50:32.179Z,28.58
2023-05-11T18:53:02.186Z,29.10
2023-05-11T18:55:35.480Z,29.66
2023-05-11T18:58:13.177Z,29.69
2023-05-11T19:00:41.516Z,30.45
2023-05-11T19:03:10.055Z,30.75
2023-05-11T19:05:57.702Z,31.06
2023-05-11T19:08:27.619Z,31.36
2023-05-11T19:10:55.847Z,31.57
2023-05-11T19:13:26.041Z,31.59
2023-05-11T19:15:58.991Z,32.27
2023-05-11T19:18:28.606Z,32.41
2023-05-11T19:20:57.615Z,32.48
2023-05-11T19:23:25.852Z,32.92
2023-05-11T19:25:55.981Z,33.00
2023-05-11T19:28:25.624Z,32.99
2023-05-11T19:31:02.060Z,33.56
2023-05-11T19:33:30.532Z,33.02
2023-05-11T19:35:59.038Z,33.73
2023-05-11T19:38:27.611Z,33.92
2023-05-11T19:40:56.427Z,34.24
2023-05-11T19:43:29.003Z,34.54
2023-05-11T19:45:57.272Z,34.33
2023-05-11T19:48:25.566Z,34.86
2023-05-11T19:50:54.444Z,34.82
2023-05-11T19:53:22.910Z,34.88
2023-05-11T19:55:51.595Z,35.21
2023-05-11T19:58:19.877Z,34.87
2023-05-11T20:00:49.967Z,35.17
2023-05-11T20:03:18.333Z,35.32
2023-05-11T20:05:49.327Z,35.38
2023-05-11T20:08:19.370Z,35.40
2023-05-11T20:10:48.223Z,35.75
2023-05-11T20:13:16.467Z,36.03
2023-05-11T20:15:45.117Z,35.57
2023-05-11T20:18:14.660Z,35.93
2023-05-11T20:20:42.718Z,36.04
2023-05-11T20:23:10.912Z,36.31
2023-05-11T20:25:43.900Z,36.50
2023-05-11T20:28:12.398Z,36.77
2023-05-11T20:30:40.718Z,36.94
2023-05-11T20:35:41.514Z,37.37
2023-05-11T20:38:09.757Z,37.16
2023-05-11T20:40:37.915Z,37.84
2023-05-11T20:43:06.180Z,37.29
2023-05-11T20:45:34.526Z,37.75
2023-05-11T20:48:06.293Z,38.22
2023-05-11T20:50:34.995Z,38.06
2023-05-11T20:53:04.635Z,38.60
2023-05-11T20:55:33.091Z,38.14
2023-05-11T20:58:01.472Z,38.49
2023-05-11T21:00:29.791Z,38.78
2023-05-11T21:02:58.179Z,38.95
2023-05-11T21:05:26.483Z,39.22
2023-05-11T21:07:57.298Z,39.32
2023-05-11T21:10:40.679Z,39.64
2023-05-11T21:13:08.800Z,39.73
2023-05-11T21:15:36.928Z,40.03
2023-05-11T21:18:06.597Z,39.99
2023-05-11T21:20:43.918Z,40.34
2023-05-11T21:23:12.044Z,40.66
2023-05-11T21:25:41.694Z,40.36
2023-05-11T21:28:09.894Z,40.90
2023-05-11T21:30:38.125Z,40.84
2023-05-11T21:33:06.299Z,41.46
2023-05-11T21:35:34.656Z,40.80
2023-05-11T21:38:03.518Z,41.76
2023-05-11T21:40:32.843Z,41.59
2023-05-11T21:43:02.816Z,41.72
2023-05-11T21:45:31.544Z,42.46
2023-05-11T21:48:03.111Z,42.39
2023-05-11T21:50:31.410Z,42.16
2023-05-11T21:52:59.520Z,41.86
2023-05-11T21:55:34.293Z,42.43
2023-05-11T21:58:04.594Z,43.06
2023-05-11T22:00:34.692Z,42.91
2023-05-11T22:03:03.605Z,42.98
2023-05-11T22:05:32.580Z,43.35
2023-05-11T22:08:13.160Z,43.07
2023-05-11T22:10:43.139Z,43.27
2023-05-11T22:13:13.097Z,44.23
2023-05-11T22:15:41.230Z,43.35
2023-05-11T22:18:09.574Z,43.91
2023-05-11T22:20:37.817Z,43.95
2023-05-11T22:23:05.952Z,44.11
2023-05-11T22:25:34.104Z,44.68
2023-05-11T22:28:02.295Z,44.30
2023-05-11T22:30:32.314Z,45.09
2023-05-11T22:33:01.011Z,45.34
2023-05-11T22:35:29.983Z,44.67
2023-05-11T22:37:58.203Z,44.78
2023-05-11T22:40:26.821Z,45.19
2023-05-11T22:42:54.964Z,44.92
2023-05-11T22:45:23.530Z,45.22
2023-05-11T22:47:53.221Z,45.20
2023-05-11T22:50:21.984Z,45.57
2023-05-11T22:52:50.344Z,45.20
2023-05-11T22:55:18.872Z,45.22
2023-05-11T22:57:47.053Z,45.95
2023-05-11T23:00:15.688Z,45.34
2023-05-11T23:02:44.342Z,45.58
2023-05-11T23:05:13.972Z,45.32
2023-05-11T23:07:42.931Z,45.74
2023-05-11T23:10:11.813Z,46.13
2023-05-11T23:12:40.292Z,45.86
2023-05-11T23:15:09.689Z,45.82
2023-05-11T23:17:38.133Z,46.08
2023-05-11T23:20:07.709Z,46.41
2023-05-11T23:22:37.302Z,46.07
2023-05-11T23:25:06.058Z,46.84
2023-05-11T23:27:35.028Z,46.52
2023-05-11T23:30:03.278Z,47.14
2023-05-11T23:32:32.282Z,46.88
2023-05-11T23:35:00.568Z,47.11
2023-05-11T23:37:28.923Z,47.47
2023-05-11T23:39:58.563Z,46.90
2023-05-11T23:42:26.840Z,46.96
2023-05-11T23:44:56.151Z,46.94
2023-05-11T23:47:24.793Z,47.32
2023-05-11T23:49:53.737Z,46.85
2023-05-11T23:52:21.936Z,47.02
2023-05-11T23:54:50.589Z,48.09
2023-05-11T23:57:20.309Z,47.99
2023-05-11T23:59:49.040Z,48.48
